Time;durP1;ratioP1;P1;durP2;ratioP2;P2;SDS_P1;SDS_P2;PMS_P1;PMS_P2;Temp;Humidity;BMP_temperature;BMP_pressure;BME280_temperature;BME280_humidity;BME280_pressure;Samples;Min_cycle;Max_cycle;Signal;HPM_P1;HPM_P2
2022/01/25 00:09:18;;;;;;;4.13;3.83;;;1.80;99.90;;;;;;5106299;27;21122;-60
2022/01/25 00:15:13;;;;;;;5.28;4.97;;;1.70;99.90;;;;;;5146580;27;20546;-57
2022/01/25 00:26:59;;;;;;;5.47;5.05;;;1.70;99.90;;;;;;5127029;27;20875;-60
2022/01/25 00:29:55;;;;;;;6.00;5.50;;;1.80;99.90;;;;;;5086157;28;20805;-60
2022/01/25 00:32:34;;;;;;;6.30;5.80;;;1.80;99.90;;;;;;5147663;27;20534;-59
2022/01/25 00:35:14;;;;;;;4.72;4.43;;;1.80;99.90;;;;;;5085758;28;20559;-60
2022/01/25 00:37:54;;;;;;;5.00;4.70;;;1.80;99.90;;;;;;5085359;28;20652;-59
2022/01/25 00:40:34;;;;;;;5.50;5.10;;;1.80;99.90;;;;;;5106354;27;20889;-59
2022/01/25 00:43:14;;;;;;;5.13;4.72;;;1.80;99.90;;;;;;5147404;27;20900;-58
2022/01/25 00:45:58;;;;;;;5.22;4.65;;;1.70;99.90;;;;;;5086091;28;20961;-59
2022/01/25 00:48:44;;;;;;;5.03;4.63;;;1.80;99.90;;;;;;5085809;27;20859;-59
2022/01/25 00:51:57;;;;;;;4.57;4.28;;;1.80;99.90;;;;;;5085852;28;20571;-60
2022/01/25 00:54:40;;;;;;;5.03;4.63;;;1.80;99.90;;;;;;5106397;27;21058;-58
2022/01/25 00:57:21;;;;;;;5.30;4.53;;;1.70;99.90;;;;;;5147425;27;20579;-60
2022/01/25 01:00:01;;;;;;;6.97;4.15;;;1.70;99.90;;;;;;5148158;27;20542;-59
2022/01/25 01:02:41;;;;;;;4.28;3.97;;;1.70;99.90;;;;;;5106522;27;20534;-58
2022/01/25 01:05:20;;;;;;;7.88;7.18;;;1.70;99.90;;;;;;5106504;27;20708;-59
2022/01/25 01:08:00;;;;;;;6.32;5.93;;;1.70;99.90;;;;;;5106056;27;21058;-59
2022/01/25 01:10:40;;;;;;;5.97;5.47;;;1.70;99.90;;;;;;5147764;27;20542;-60
2022/01/25 01:13:48;;;;;;;6.20;5.75;;;1.70;99.90;;;;;;5106400;27;20591;-60
2022/01/25 01:17:02;;;;;;;5.20;4.80;;;1.70;99.90;;;;;;5126497;27;20613;-58
2022/01/25 01:31:55;;;;;;;5.50;5.00;;;1.70;99.90;;;;;;5127308;27;20560;-57
2022/01/25 01:40:59;;;;;;;5.45;5.05;;;1.70;99.90;;;;;;5106606;27;20542;-60
2022/01/25 01:43:39;;;;;;;5.00;4.60;;;1.70;99.90;;;;;;5085916;28;20593;-60
2022/01/25 01:46:30;;;;;;;5.95;5.45;;;1.70;99.90;;;;;;5085810;28;20558;-60
2022/01/25 01:49:11;;;;;;;6.15;5.65;;;1.60;99.90;;;;;;5126472;27;20536;-59
2022/01/25 01:51:50;;;;;;;5.90;5.45;;;1.60;99.90;;;;;;5147179;27;20542;-59
2022/01/25 01:54:29;;;;;;;6.40;6.00;;;1.60;99.90;;;;;;5147574;27;20654;-58
2022/01/25 01:57:10;;;;;;;5.78;5.32;;;1.60;99.90;;;;;;5105826;27;20542;-59
2022/01/25 01:59:49;;;;;;;5.57;5.10;;;1.70;99.90;;;;;;5127065;27;21163;-60
2022/01/25 02:02:29;;;;;;;5.93;5.53;;;1.70;99.90;;;;;;5126550;27;20544;-58
2022/01/25 02:05:09;;;;;;;6.10;5.60;;;1.60;99.90;;;;;;5147677;27;20611;-60
2022/01/25 02:07:49;;;;;;;6.25;5.75;;;1.70;99.90;;;;;;5085358;28;20620;-59
2022/01/25 02:10:29;;;;;;;6.97;6.38;;;1.70;99.90;;;;;;5147344;27;21108;-58
2022/01/25 02:13:10;;;;;;;6.85;5.65;;;1.70;99.90;;;;;;5082637;27;21032;-58
2022/01/25 02:15:50;;;;;;;6.57;5.97;;;1.70;99.90;;;;;;5147898;27;20554;-59
2022/01/25 02:24:24;;;;;;;6.18;5.78;;;1.70;99.90;;;;;;5126834;27;20528;-60
2022/01/25 02:27:05;;;;;;;6.15;5.75;;;1.60;99.90;;;;;;5085883;28;20679;-59
2022/01/25 02:29:44;;;;;;;5.95;5.53;;;1.60;99.90;;;;;;5106488;27;20582;-59
2022/01/25 02:32:24;;;;;;;6.50;6.00;;;1.60;99.90;;;;;;5147425;27;21210;-60
2022/01/25 02:35:04;;;;;;;6.32;5.82;;;1.60;99.90;;;;;;5085456;28;20668;-59
2022/01/25 02:37:44;;;;;;;5.45;5.05;;;1.60;99.90;;;;;;5106197;27;20665;-59
2022/01/25 02:40:23;;;;;;;5.82;5.40;;;1.60;99.90;;;;;;5106334;27;20534;-58
2022/01/25 02:43:04;;;;;;;5.88;5.38;;;1.60;99.90;;;;;;5085815;27;20536;-60
2022/01/25 02:45:46;;;;;;;5.70;5.28;;;1.60;99.90;;;;;;5086453;27;20575;-60
2022/01/25 02:48:32;;;;;;;6.63;6.13;;;1.60;99.90;;;;;;5085417;28;20600;-60
2022/01/25 02:51:12;;;;;;;6.05;5.65;;;1.50;99.90;;;;;;5146150;27;20555;-59
2022/01/25 02:53:52;;;;;;;7.10;6.50;;;1.50;99.90;;;;;;5119189;27;20583;-59
2022/01/25 02:56:32;;;;;;;7.25;6.65;;;1.60;99.90;;;;;;5085075;27;20555;-59
2022/01/25 02:59:13;;;;;;;6.43;5.57;;;1.50;99.90;;;;;;5126603;27;20540;-59
2022/01/25 03:01:53;;;;;;;7.90;7.30;;;1.60;99.90;;;;;;5085346;27;20539;-59
2022/01/25 03:04:33;;;;;;;6.60;6.10;;;1.50;99.90;;;;;;5106141;27;20537;-60
2022/01/25 03:07:13;;;;;;;8.45;7.03;;;1.50;99.90;;;;;;5082070;28;20696;-60
2022/01/25 03:09:54;;;;;;;6.45;5.93;;;1.60;99.90;;;;;;5084595;28;20562;-60
2022/01/25 03:12:40;;;;;;;6.70;6.20;;;1.50;99.90;;;;;;5085859;27;21041;-58
2022/01/25 03:15:31;;;;;;;5.93;5.53;;;1.50;99.90;;;;;;5086359;28;20672;-58
2022/01/25 03:18:23;;;;;;;6.72;6.22;;;1.60;99.90;;;;;;5106121;27;21182;-58
2022/01/25 03:21:17;;;;;;;5.75;5.32;;;1.60;99.90;;;;;;5100092;27;20588;-59
2022/01/25 03:23:58;;;;;;;7.57;6.63;;;1.50;99.90;;;;;;5085340;28;20680;-58
2022/01/25 03:26:40;;;;;;;8.70;7.85;;;1.50;99.90;;;;;;5084761;28;20585;-60
2022/01/25 03:29:20;;;;;;;6.45;5.95;;;1.60;99.90;;;;;;5085434;28;21009;-59
2022/01/25 03:31:59;;;;;;;6.72;6.20;;;1.50;99.90;;;;;;5127119;27;20536;-56
2022/01/25 03:34:39;;;;;;;6.53;6.03;;;1.50;99.90;;;;;;5080556;27;20699;-59
2022/01/25 03:37:19;;;;;;;6.32;5.72;;;1.60;99.90;;;;;;5104769;27;20666;-59
2022/01/25 03:39:59;;;;;;;7.05;6.55;;;1.50;99.90;;;;;;5113843;27;20579;-59
2022/01/25 03:42:39;;;;;;;6.75;6.25;;;1.50;99.90;;;;;;5106106;27;20556;-57
2022/01/25 03:45:21;;;;;;;6.85;6.35;;;1.50;99.90;;;;;;5085764;27;20909;-60
2022/01/25 03:49:48;;;;;;;7.47;6.75;;;1.50;99.90;;;;;;5106105;27;20550;-59
2022/01/25 03:51:01;;;;;;;5.75;5.35;;;1.50;99.90;;;;;;5142519;27;20673;-59
2022/01/25 03:53:40;;;;;;;5.47;5.07;;;1.50;99.90;;;;;;5103492;27;21041;-60
2022/01/25 03:56:21;;;;;;;6.72;6.22;;;1.50;99.90;;;;;;5083528;27;21097;-60
2022/01/25 03:59:00;;;;;;;7.72;6.32;;;1.50;99.90;;;;;;5071557;28;20693;-59
2022/01/25 04:01:40;;;;;;;6.72;6.22;;;1.50;99.90;;;;;;5138784;27;20706;-58
2022/01/25 04:04:23;;;;;;;7.07;6.47;;;1.50;99.90;;;;;;5104646;27;20722;-58
2022/01/25 04:07:09;;;;;;;5.82;5.43;;;1.50;99.90;;;;;;5123256;27;20540;-58
2022/01/25 04:09:49;;;;;;;5.65;5.25;;;1.50;99.90;;;;;;5104363;27;20669;-59
2022/01/25 04:12:29;;;;;;;6.18;5.75;;;1.50;99.90;;;;;;5113619;27;20569;-59
2022/01/25 04:15:10;;;;;;;6.15;5.65;;;1.50;99.90;;;;;;5074932;27;20557;-60
2022/01/25 04:18:02;;;;;;;5.65;5.25;;;1.50;99.90;;;;;;5147000;27;20661;-60
2022/01/25 04:20:44;;;;;;;6.22;5.82;;;1.50;99.90;;;;;;5086464;27;21077;-59
2022/01/25 04:26:20;;;;;;;5.68;5.28;;;1.50;99.90;;;;;;5086120;28;21217;-60
2022/01/25 04:29:00;;;;;;;5.55;5.05;;;1.50;99.90;;;;;;5106560;27;21066;-60
2022/01/25 04:31:39;;;;;;;4.72;4.32;;;1.50;99.90;;;;;;5083815;27;20569;-60
2022/01/25 04:34:39;;;;;;;5.10;3.35;;;1.50;99.90;;;;;;5083268;27;20552;-59
2022/01/25 04:49:14;;;;;;;4.28;3.97;;;1.40;99.90;;;;;;5061952;27;20549;-59
2022/01/25 04:51:58;;;;;;;4.72;4.18;;;1.50;99.90;;;;;;5070518;27;20578;-60
2022/01/25 04:54:46;;;;;;;4.68;4.28;;;1.40;99.90;;;;;;5123843;27;20553;-58
2022/01/25 04:57:38;;;;;;;4.53;4.22;;;1.50;99.90;;;;;;5085871;28;20688;-59
2022/01/25 05:00:21;;;;;;;3.78;3.50;;;1.40;99.90;;;;;;5086186;28;20663;-58
2022/01/25 05:03:09;;;;;;;9.60;4.60;;;1.40;99.90;;;;;;5086185;27;20559;-60
2022/01/25 05:05:56;;;;;;;4.72;4.30;;;1.40;99.90;;;;;;5125317;27;20695;-59
2022/01/25 05:08:41;;;;;;;3.65;3.45;;;1.40;99.90;;;;;;5103050;27;20669;-60
2022/01/25 05:11:27;;;;;;;5.38;4.97;;;1.40;99.90;;;;;;5139369;27;20693;-58
2022/01/25 05:14:16;;;;;;;4.78;4.32;;;1.40;99.90;;;;;;5106339;27;20669;-60
2022/01/25 05:17:00;;;;;;;5.15;4.75;;;1.40;99.90;;;;;;5085455;28;20536;-59
2022/01/25 05:22:50;;;;;;;4.50;4.10;;;1.40;99.90;;;;;;5103004;27;21027;-60
2022/01/25 05:25:30;;;;;;;5.70;5.20;;;1.40;99.90;;;;;;5072626;28;20689;-60
2022/01/25 05:28:10;;;;;;;5.45;4.95;;;1.40;99.90;;;;;;5085563;27;20577;-60
2022/01/25 05:30:50;;;;;;;6.57;5.93;;;1.40;99.90;;;;;;5105751;27;20689;-59
2022/01/25 05:33:29;;;;;;;6.75;5.18;;;1.40;99.90;;;;;;5100496;27;21225;-61
2022/01/25 05:36:09;;;;;;;5.53;5.03;;;1.40;99.90;;;;;;5088638;27;20684;-61
2022/01/25 05:38:49;;;;;;;6.30;5.80;;;1.40;99.90;;;;;;5084090;28;20668;-61
2022/01/25 05:41:31;;;;;;;7.43;6.30;;;1.40;99.90;;;;;;5145644;27;20653;-61
2022/01/25 05:44:22;;;;;;;6.72;6.10;;;1.40;99.90;;;;;;5085134;28;20593;-60
2022/01/25 05:47:06;;;;;;;4.80;4.38;;;1.40;99.90;;;;;;5086038;28;21204;-61
2022/01/25 05:49:46;;;;;;;4.80;4.50;;;1.40;99.90;;;;;;5082009;28;20681;-61
2022/01/25 05:52:26;;;;;;;3.97;3.58;;;1.40;99.90;;;;;;5084167;28;20632;-61
2022/01/25 05:55:07;;;;;;;4.47;4.07;;;1.40;99.90;;;;;;5084064;28;20684;-60
2022/01/25 05:57:47;;;;;;;4.60;4.28;;;1.40;99.90;;;;;;5080074;27;20545;-61
2022/01/25 06:00:27;;;;;;;4.80;4.40;;;1.40;99.90;;;;;;5084327;27;20536;-61
2022/01/25 06:03:07;;;;;;;3.53;3.28;;;1.40;99.90;;;;;;5125500;27;20944;-61
2022/01/25 06:05:46;;;;;;;4.40;3.97;;;1.40;99.90;;;;;;5145315;27;20615;-61
2022/01/25 06:08:26;;;;;;;3.53;3.22;;;1.40;99.90;;;;;;5157173;27;20576;-60
2022/01/25 06:11:09;;;;;;;7.43;3.95;;;1.40;99.90;;;;;;5104806;27;20564;-61
2022/01/25 06:13:49;;;;;;;5.53;4.90;;;1.40;99.90;;;;;;5084153;28;20671;-61
2022/01/25 06:16:29;;;;;;;10.75;9.60;;;1.40;99.90;;;;;;5060527;27;20588;-61
2022/01/25 06:19:09;;;;;;;9.27;7.88;;;1.40;99.90;;;;;;5145598;27;20773;-61
2022/01/25 06:21:48;;;;;;;6.22;5.63;;;1.40;99.90;;;;;;5084385;27;20536;-61
2022/01/25 06:24:28;;;;;;;6.20;4.40;;;1.40;99.90;;;;;;5141097;27;20666;-61
2022/01/25 06:27:08;;;;;;;5.32;4.93;;;1.40;99.90;;;;;;5084440;27;21159;-61
2022/01/25 06:29:49;;;;;;;4.85;4.45;;;1.40;99.90;;;;;;5124193;27;20544;-61
2022/01/25 06:32:28;;;;;;;4.38;3.97;;;1.40;99.90;;;;;;5105766;27;20569;-61
2022/01/25 06:35:09;;;;;;;3.85;3.55;;;1.40;99.90;;;;;;5085546;28;20692;-60
2022/01/25 06:37:48;;;;;;;5.60;3.90;;;1.40;99.90;;;;;;5146167;27;21041;-59
2022/01/25 06:40:28;;;;;;;5.03;4.53;;;1.40;99.90;;;;;;5085788;28;20652;-61
2022/01/25 06:43:07;;;;;;;4.45;4.15;;;1.40;99.90;;;;;;5126660;27;20668;-61
2022/01/25 06:45:55;;;;;;;4.75;4.38;;;1.40;99.90;;;;;;5106092;27;20681;-61
2022/01/25 06:48:35;;;;;;;4.75;4.10;;;1.40;99.90;;;;;;5085806;27;20545;-61
2022/01/25 06:51:15;;;;;;;4.57;4.15;;;1.40;99.90;;;;;;5106033;27;21131;-61
2022/01/25 06:53:54;;;;;;;4.07;3.78;;;1.40;99.90;;;;;;5106373;27;20998;-61
2022/01/25 06:56:35;;;;;;;4.15;3.85;;;1.40;99.90;;;;;;5086153;28;20688;-60
2022/01/25 06:59:15;;;;;;;5.03;4.53;;;1.40;99.90;;;;;;5085996;27;20555;-60
2022/01/25 07:01:54;;;;;;;3.92;3.63;;;1.40;99.90;;;;;;5106159;27;20535;-59
2022/01/25 07:04:34;;;;;;;4.32;3.97;;;1.40;99.90;;;;;;5085942;28;20676;-60
2022/01/25 07:07:14;;;;;;;4.85;4.45;;;1.40;99.90;;;;;;5085399;28;21208;-60
2022/01/25 07:09:53;;;;;;;5.68;4.25;;;1.40;99.90;;;;;;5085930;27;20547;-61
2022/01/25 07:12:33;;;;;;;7.20;4.30;;;1.40;99.90;;;;;;5106546;27;20666;-62
2022/01/25 07:15:14;;;;;;;4.50;4.10;;;1.40;99.90;;;;;;5147704;27;20665;-60
2022/01/25 07:17:53;;;;;;;4.97;4.57;;;1.50;99.90;;;;;;5085787;28;20675;-61
2022/01/25 07:20:33;;;;;;;5.10;4.70;;;1.50;99.90;;;;;;5107077;27;21003;-59
2022/01/25 07:23:13;;;;;;;4.85;4.45;;;1.50;99.90;;;;;;5106443;27;20658;-60
2022/01/25 07:25:52;;;;;;;4.70;4.22;;;1.50;99.90;;;;;;5126773;27;20668;-60
2022/01/25 07:28:33;;;;;;;4.90;4.50;;;1.50;99.90;;;;;;5105953;27;20558;-61
2022/01/25 07:31:12;;;;;;;5.13;4.63;;;1.60;99.90;;;;;;5148069;27;21113;-60
2022/01/25 07:33:52;;;;;;;5.47;4.43;;;1.60;99.90;;;;;;5086033;27;21013;-61
2022/01/25 07:36:32;;;;;;;5.43;4.93;;;1.70;99.90;;;;;;5086250;27;21257;-59
2022/01/25 07:39:12;;;;;;;5.65;5.15;;;1.70;99.90;;;;;;5105903;27;20665;-61
2022/01/25 07:41:56;;;;;;;5.43;4.93;;;1.70;99.90;;;;;;5106538;27;20681;-60
2022/01/25 07:44:38;;;;;;;5.43;5.03;;;1.80;99.90;;;;;;5086312;28;21025;-60
2022/01/25 07:47:17;;;;;;;4.65;4.25;;;1.80;99.90;;;;;;5106561;27;20546;-60
2022/01/25 07:49:57;;;;;;;5.80;5.18;;;1.90;99.90;;;;;;5086180;27;20536;-60
2022/01/25 07:52:38;;;;;;;4.88;4.40;;;1.90;99.90;;;;;;5085927;28;20557;-61
2022/01/25 07:55:17;;;;;;;5.45;5.05;;;1.90;99.90;;;;;;5126830;27;20552;-61
2022/01/25 07:57:57;;;;;;;4.82;4.50;;;1.90;99.90;;;;;;5105588;27;20550;-62
2022/01/25 08:00:36;;;;;;;5.32;4.93;;;2.00;99.90;;;;;;5086549;28;20774;-60
2022/01/25 08:03:18;;;;;;;6.57;5.15;;;2.00;99.90;;;;;;5085864;28;20675;-61
2022/01/25 08:05:58;;;;;;;5.88;5.38;;;2.10;99.90;;;;;;5106173;27;20677;-60
2022/01/25 08:08:38;;;;;;;5.78;5.22;;;2.10;99.90;;;;;;5105713;27;20681;-61
2022/01/25 08:11:17;;;;;;;7.53;6.93;;;2.10;99.90;;;;;;5147666;27;20526;-61
2022/01/25 08:14:11;;;;;;;6.57;5.93;;;2.20;99.90;;;;;;5147383;27;21091;-61
2022/01/25 08:16:52;;;;;;;6.55;5.97;;;2.20;99.90;;;;;;5106339;27;21106;-61
2022/01/25 08:19:31;;;;;;;7.03;6.38;;;2.20;99.90;;;;;;5126949;27;20537;-61
2022/01/25 08:22:11;;;;;;;7.10;6.50;;;2.30;99.90;;;;;;5107563;27;20673;-59
2022/01/25 08:24:51;;;;;;;8.35;7.72;;;2.30;99.90;;;;;;5086192;27;20563;-60
2022/01/25 08:27:31;;;;;;;8.98;8.25;;;2.40;99.90;;;;;;5086179;28;20551;-60
2022/01/25 08:30:12;;;;;;;7.53;6.93;;;2.40;99.90;;;;;;5086084;28;20679;-60
2022/01/25 08:32:53;;;;;;;7.15;6.55;;;2.40;99.90;;;;;;5106979;27;20553;-60
2022/01/25 08:35:32;;;;;;;7.88;7.13;;;2.40;99.90;;;;;;5106170;27;20669;-60
2022/01/25 08:38:12;;;;;;;8.30;7.50;;;2.40;99.90;;;;;;5086035;28;20676;-60
2022/01/25 08:40:51;;;;;;;8.23;7.50;;;2.40;99.90;;;;;;5086321;27;20547;-60
2022/01/25 08:43:32;;;;;;;6.88;6.38;;;2.50;99.90;;;;;;5106548;27;20669;-60
2022/01/25 08:46:11;;;;;;;6.85;6.35;;;2.50;99.90;;;;;;5106095;27;20689;-59
2022/01/25 08:48:51;;;;;;;7.05;6.45;;;2.50;99.90;;;;;;5085748;27;20909;-60
2022/01/25 08:51:31;;;;;;;7.88;7.03;;;2.50;99.90;;;;;;5127040;27;20609;-61
2022/01/25 08:54:11;;;;;;;7.00;6.22;;;2.60;99.90;;;;;;5126423;27;20560;-60
2022/01/25 08:56:51;;;;;;;6.95;6.38;;;2.70;99.90;;;;;;5085881;27;20557;-59
2022/01/25 08:59:31;;;;;;;8.43;7.72;;;2.70;99.90;;;;;;5106235;27;20570;-60
2022/01/25 09:02:10;;;;;;;7.25;6.75;;;2.70;99.90;;;;;;5106182;27;20542;-61
2022/01/25 09:04:50;;;;;;;6.70;6.20;;;2.70;99.90;;;;;;5147189;27;20670;-60
2022/01/25 09:07:30;;;;;;;7.95;7.28;;;2.70;99.90;;;;;;5085424;28;20672;-60
2022/01/25 09:10:10;;;;;;;7.97;7.38;;;2.70;99.90;;;;;;5106094;27;20661;-61
2022/01/25 09:12:51;;;;;;;8.32;7.72;;;2.70;99.90;;;;;;5106370;27;20658;-61
2022/01/25 09:15:31;;;;;;;9.95;9.15;;;2.70;99.90;;;;;;5084819;27;20420;-61
2022/01/25 09:18:11;;;;;;;9.80;9.00;;;2.80;99.90;;;;;;5147371;27;20673;-59
2022/01/25 09:20:51;;;;;;;9.60;8.80;;;2.80;99.90;;;;;;5085879;28;21064;-59
2022/01/25 09:23:31;;;;;;;9.45;8.52;;;2.90;99.90;;;;;;5086078;28;21185;-60
2022/01/25 09:26:10;;;;;;;10.23;9.33;;;3.00;99.90;;;;;;5085180;28;20556;-60
2022/01/25 09:28:53;;;;;;;7.82;7.22;;;3.00;99.90;;;;;;5085709;27;20561;-60
2022/01/25 09:31:32;;;;;;;7.97;7.38;;;3.00;99.90;;;;;;5086021;27;20539;-60
2022/01/25 09:34:12;;;;;;;7.22;6.53;;;3.00;99.90;;;;;;5086078;28;20860;-59
2022/01/25 09:36:52;;;;;;;7.10;6.47;;;2.90;99.90;;;;;;5085686;28;20555;-60
2022/01/25 09:39:31;;;;;;;6.50;6.05;;;2.90;99.90;;;;;;5147644;27;20669;-60
2022/01/25 09:42:11;;;;;;;7.30;6.70;;;2.90;99.90;;;;;;5126632;27;20544;-59
2022/01/25 09:44:51;;;;;;;7.13;6.53;;;3.00;99.90;;;;;;5106245;27;20550;-59
2022/01/25 09:47:31;;;;;;;7.97;7.28;;;3.10;99.90;;;;;;5085602;28;20660;-59
2022/01/25 09:50:10;;;;;;;7.53;7.03;;;3.10;99.90;;;;;;5106414;27;20653;-60
2022/01/25 09:52:51;;;;;;;7.28;6.70;;;3.10;99.90;;;;;;5106152;27;20554;-60
2022/01/25 09:55:32;;;;;;;7.75;7.15;;;3.20;99.90;;;;;;5086192;28;20987;-59
2022/01/25 09:58:13;;;;;;;7.50;6.85;;;3.30;99.90;;;;;;5106437;27;20538;-59
2022/01/25 10:00:56;;;;;;;7.13;6.45;;;3.40;99.90;;;;;;5085820;27;20560;-59
2022/01/25 10:03:38;;;;;;;7.95;7.20;;;3.40;99.90;;;;;;5106615;27;20654;-60
2022/01/25 10:06:20;;;;;;;7.75;7.05;;;3.30;99.90;;;;;;5126681;27;20552;-60
2022/01/25 10:09:00;;;;;;;8.07;7.47;;;3.30;99.90;;;;;;5126355;27;20658;-59
2022/01/25 10:11:40;;;;;;;7.07;6.57;;;3.40;99.90;;;;;;5077398;27;20580;-59
2022/01/25 10:14:23;;;;;;;7.82;7.13;;;3.50;99.90;;;;;;5101175;27;20582;-59
2022/01/25 10:17:03;;;;;;;7.60;6.90;;;3.50;99.90;;;;;;5093470;27;20674;-59
2022/01/25 10:19:43;;;;;;;7.88;7.20;;;3.40;99.90;;;;;;5151772;27;20693;-59
2022/01/25 10:22:23;;;;;;;7.60;7.10;;;3.40;99.90;;;;;;5105831;27;20576;-59
2022/01/25 10:25:02;;;;;;;7.32;6.70;;;3.40;99.90;;;;;;5086403;27;21076;-59
2022/01/25 10:28:03;;;;;;;7.38;6.82;;;3.30;99.90;;;;;;5085591;27;20577;-59
2022/01/25 10:30:49;;;;;;;6.78;6.28;;;3.50;99.90;;;;;;5147355;27;20649;-59
2022/01/25 10:33:33;;;;;;;7.65;6.95;;;3.50;99.90;;;;;;5081918;28;20699;-59
2022/01/25 10:36:17;;;;;;;7.63;7.03;;;3.60;99.90;;;;;;5130839;27;20540;-60
2022/01/25 10:38:57;;;;;;;9.43;8.65;;;3.50;99.90;;;;;;5105677;27;20674;-59
2022/01/25 10:41:37;;;;;;;8.18;7.47;;;3.40;99.90;;;;;;5086113;28;20667;-60
2022/01/25 10:44:16;;;;;;;8.23;7.63;;;3.40;99.90;;;;;;5106549;27;20944;-60
2022/01/25 10:46:56;;;;;;;7.30;6.50;;;3.50;99.90;;;;;;5126871;27;21392;-59
2022/01/25 10:49:44;;;;;;;11.27;6.85;;;3.50;99.90;;;;;;5105664;27;21095;-60
2022/01/25 10:52:28;;;;;;;7.63;6.97;;;3.60;99.90;;;;;;5086068;28;20663;-60
2022/01/25 10:55:10;;;;;;;8.43;6.82;;;3.50;99.90;;;;;;5126533;27;20552;-59
2022/01/25 10:57:57;;;;;;;7.82;7.10;;;3.50;99.90;;;;;;5106076;27;20666;-60
2022/01/25 11:00:41;;;;;;;7.55;6.90;;;3.50;99.90;;;;;;5085862;27;20549;-59
2022/01/25 11:03:28;;;;;;;12.38;11.30;;;3.40;99.90;;;;;;5127282;27;20540;-57
2022/01/25 11:06:12;;;;;;;8.60;7.93;;;3.40;99.90;;;;;;5105849;27;21124;-59
2022/01/25 11:08:54;;;;;;;7.32;6.72;;;3.40;99.90;;;;;;5085680;28;20668;-59
2022/01/25 11:11:38;;;;;;;7.18;6.68;;;3.40;99.90;;;;;;5105950;27;20677;-59
2022/01/25 11:17:15;;;;;;;7.68;7.07;;;3.60;99.90;;;;;;5085485;27;20553;-59
2022/01/25 11:19:56;;;;;;;8.23;7.63;;;3.80;99.90;;;;;;5085985;28;20663;-59
2022/01/25 11:22:36;;;;;;;7.40;6.82;;;3.80;99.90;;;;;;5106274;27;20653;-59
2022/01/25 11:25:20;;;;;;;7.82;7.13;;;3.80;99.90;;;;;;5085953;28;20687;-59
2022/01/25 11:28:00;;;;;;;8.13;7.53;;;3.90;99.90;;;;;;5085469;28;20543;-59
2022/01/25 11:30:40;;;;;;;7.60;7.00;;;3.90;99.90;;;;;;5127094;27;20544;-60
2022/01/25 11:33:21;;;;;;;8.90;8.20;;;3.90;99.90;;;;;;5105605;27;20576;-59
2022/01/25 11:36:00;;;;;;;9.15;8.32;;;3.90;99.90;;;;;;5081504;28;20676;-59
2022/01/25 11:38:46;;;;;;;8.38;7.72;;;4.00;99.90;;;;;;5105582;27;20530;-60
2022/01/25 11:41:26;;;;;;;8.40;7.70;;;4.00;99.90;;;;;;5106028;27;21087;-59
2022/01/25 11:44:12;;;;;;;7.03;6.53;;;4.00;99.90;;;;;;5085556;28;20664;-59
2022/01/25 11:46:57;;;;;;;6.80;6.20;;;4.00;99.90;;;;;;5085447;28;20660;-59
2022/01/25 11:49:51;;;;;;;6.85;6.25;;;4.10;99.90;;;;;;5106247;27;20677;-58
2022/01/25 11:52:31;;;;;;;7.15;6.55;;;4.10;99.90;;;;;;5085535;28;20668;-59
2022/01/25 11:55:26;;;;;;;8.38;7.68;;;4.00;99.90;;;;;;5098521;27;21134;-59
2022/01/25 11:58:08;;;;;;;6.93;6.30;;;4.00;99.90;;;;;;5126332;27;20533;-59
2022/01/25 12:00:49;;;;;;;8.55;7.78;;;4.00;99.90;;;;;;5105771;27;20542;-59
2022/01/25 12:03:31;;;;;;;8.32;7.60;;;4.00;99.90;;;;;;5085616;28;21022;-59
2022/01/25 12:06:17;;;;;;;7.63;7.03;;;4.00;99.90;;;;;;5124877;27;21080;-59
2022/01/25 12:09:14;;;;;;;8.90;7.80;;;4.00;99.90;;;;;;5105486;27;21106;-59
2022/01/25 12:12:00;;;;;;;8.38;7.78;;;3.90;99.90;;;;;;5085645;27;20539;-59
2022/01/25 12:14:46;;;;;;;8.40;7.80;;;3.90;99.90;;;;;;5140403;27;20542;-59
2022/01/25 12:17:34;;;;;;;8.63;7.90;;;3.90;99.90;;;;;;5085414;28;20679;-59
2022/01/25 12:20:22;;;;;;;9.10;8.48;;;4.00;99.90;;;;;;5105918;27;20542;-59
2022/01/25 12:23:10;;;;;;;8.45;7.65;;;4.10;99.90;;;;;;5127229;27;21168;-59
2022/01/25 12:25:53;;;;;;;8.18;7.40;;;4.20;99.90;;;;;;5126336;27;20547;-59
2022/01/25 12:28:37;;;;;;;8.25;7.65;;;4.20;99.90;;;;;;5122725;27;20560;-59
2022/01/25 12:31:18;;;;;;;7.68;7.00;;;4.40;99.90;;;;;;5126103;27;20710;-59
2022/01/25 12:34:25;;;;;;;7.72;7.13;;;4.50;99.90;;;;;;5084409;28;20571;-59
2022/01/25 12:37:04;;;;;;;8.10;7.47;;;4.60;99.90;;;;;;5103813;27;20541;-60
2022/01/25 12:39:43;;;;;;;7.40;6.70;;;4.60;99.90;;;;;;5105224;27;20674;-58
2022/01/25 12:42:32;;;;;;;7.82;7.22;;;4.60;99.90;;;;;;5104692;27;20665;-59
2022/01/25 12:45:17;;;;;;;8.48;7.88;;;4.60;99.90;;;;;;5148121;27;20554;-59
2022/01/25 12:47:59;;;;;;;8.13;7.43;;;4.60;99.90;;;;;;5085594;28;20663;-59
2022/01/25 12:50:41;;;;;;;9.05;8.40;;;4.60;99.90;;;;;;5106483;27;20681;-59
2022/01/25 12:53:23;;;;;;;9.10;8.30;;;4.60;99.90;;;;;;5106292;27;20541;-60
2022/01/25 12:56:05;;;;;;;8.88;8.07;;;4.60;99.90;;;;;;5106548;27;20553;-59
2022/01/25 12:58:47;;;;;;;11.85;10.85;;;4.50;99.90;;;;;;5106404;27;21042;-59
2022/01/25 13:01:28;;;;;;;28.30;25.30;;;4.50;99.90;;;;;;5106571;27;20654;-59
2022/01/25 13:04:11;;;;;;;14.75;13.63;;;4.30;99.90;;;;;;5127030;27;20536;-59
2022/01/25 13:06:52;;;;;;;14.00;12.80;;;4.20;99.90;;;;;;5106424;27;21012;-59
2022/01/25 13:09:39;;;;;;;8.30;7.60;;;4.20;99.90;;;;;;5085863;28;20543;-58
2022/01/25 13:12:27;;;;;;;8.55;7.75;;;4.30;99.90;;;;;;5086352;27;21060;-58
2022/01/25 13:15:26;;;;;;;8.40;7.70;;;4.30;99.90;;;;;;5126773;27;20559;-59
2022/01/25 13:18:11;;;;;;;10.68;9.15;;;4.30;99.90;;;;;;5103270;27;21203;-59
2022/01/25 13:21:01;;;;;;;9.10;8.40;;;4.30;99.90;;;;;;5097965;27;20684;-59
2022/01/25 13:23:53;;;;;;;8.52;7.68;;;4.30;99.90;;;;;;5135043;27;21108;-59
2022/01/25 13:26:38;;;;;;;11.38;10.43;;;4.30;99.90;;;;;;5152265;27;21134;-59
2022/01/25 13:32:19;;;;;;;7.07;6.57;;;4.40;99.90;;;;;;5105996;27;21026;-59
2022/01/25 13:35:22;;;;;;;7.43;6.82;;;4.40;99.90;;;;;;5141717;27;21029;-59
2022/01/25 13:38:05;;;;;;;7.07;6.47;;;4.30;99.90;;;;;;5084972;27;20562;-56
2022/01/25 13:40:50;;;;;;;7.13;6.53;;;4.20;99.90;;;;;;5084827;27;20552;-59
2022/01/25 13:46:28;;;;;;;6.97;6.43;;;4.10;99.90;;;;;;5150239;27;21034;-59
2022/01/25 13:49:11;;;;;;;7.00;6.50;;;4.00;99.90;;;;;;5126478;27;20540;-58
2022/01/25 13:51:52;;;;;;;8.68;7.57;;;4.00;99.90;;;;;;5106113;27;20561;-59
2022/01/25 13:54:32;;;;;;;8.63;7.28;;;3.90;99.90;;;;;;5106401;27;20555;-59
2022/01/25 13:57:13;;;;;;;7.25;6.57;;;3.80;99.90;;;;;;5085642;27;21084;-57
2022/01/25 13:59:55;;;;;;;7.05;6.47;;;3.80;99.90;;;;;;5147211;27;20966;-58
2022/01/25 14:02:34;;;;;;;8.77;7.80;;;3.70;99.90;;;;;;5085740;27;20688;-59
2022/01/25 14:05:14;;;;;;;7.72;7.22;;;3.80;99.90;;;;;;5147395;27;20608;-59
2022/01/25 14:07:55;;;;;;;8.55;7.10;;;3.80;99.90;;;;;;5105787;27;20555;-59
2022/01/25 14:10:36;;;;;;;10.88;7.97;;;3.80;99.90;;;;;;5103119;27;20693;-59
2022/01/25 14:25:30;;;;;;;8.23;7.63;;;3.60;99.90;;;;;;5085977;27;21093;-59
2022/01/25 14:28:13;;;;;;;7.68;7.03;;;3.50;99.90;;;;;;5147320;27;20661;-59
2022/01/25 14:30:53;;;;;;;7.78;7.07;;;3.50;99.90;;;;;;5086068;28;20663;-59
2022/01/25 14:33:33;;;;;;;9.63;8.02;;;3.50;99.90;;;;;;5127732;27;20543;-60
2022/01/25 14:36:15;;;;;;;8.27;7.47;;;3.50;99.90;;;;;;5086096;27;20551;-59
2022/01/25 14:38:56;;;;;;;7.45;6.72;;;3.40;99.90;;;;;;5106381;27;20537;-59
2022/01/25 14:41:37;;;;;;;7.80;7.07;;;3.40;99.90;;;;;;5078444;28;20680;-60
2022/01/25 14:44:24;;;;;;;8.25;7.55;;;3.40;99.90;;;;;;5101410;27;20576;-57
2022/01/25 14:47:13;;;;;;;8.70;8.00;;;3.30;99.90;;;;;;5088672;27;20574;-60
2022/01/25 14:49:59;;;;;;;8.27;7.57;;;3.30;99.90;;;;;;5125819;27;21010;-60
2022/01/25 14:52:38;;;;;;;8.65;7.95;;;3.30;99.90;;;;;;5147386;27;21042;-59
2022/01/25 14:55:23;;;;;;;8.68;7.93;;;3.30;99.90;;;;;;5126503;27;20679;-59
2022/01/25 14:58:21;;;;;;;8.95;8.25;;;3.20;99.90;;;;;;5146882;27;20530;-59
2022/01/25 15:01:01;;;;;;;8.90;8.02;;;3.20;99.90;;;;;;5106713;27;20853;-60
2022/01/25 15:03:44;;;;;;;7.55;6.85;;;3.10;99.90;;;;;;5126684;27;20536;-59
2022/01/25 15:06:24;;;;;;;8.25;7.60;;;3.00;99.90;;;;;;5147380;27;20956;-60
2022/01/25 15:09:04;;;;;;;8.48;7.78;;;3.00;99.90;;;;;;5105961;27;21030;-59
2022/01/25 15:11:44;;;;;;;8.13;7.53;;;2.90;99.90;;;;;;5099144;27;20987;-60
2022/01/25 15:14:30;;;;;;;8.48;7.78;;;2.80;99.90;;;;;;5083500;27;20539;-59
2022/01/25 15:17:10;;;;;;;7.82;7.20;;;2.70;99.90;;;;;;5162745;27;21191;-60
2022/01/25 15:19:49;;;;;;;7.68;7.07;;;2.60;99.90;;;;;;5101804;27;21155;-59
2022/01/25 15:22:29;;;;;;;7.28;6.68;;;2.60;99.90;;;;;;5105958;27;20670;-60
2022/01/25 15:25:11;;;;;;;7.85;7.00;;;2.50;99.90;;;;;;5140754;27;20552;-59
2022/01/25 15:27:52;;;;;;;9.73;7.78;;;2.50;99.90;;;;;;5085451;28;20671;-60
2022/01/25 15:30:32;;;;;;;9.45;8.55;;;2.40;99.90;;;;;;5106219;27;20530;-59
2022/01/25 15:33:12;;;;;;;8.32;7.53;;;2.40;99.90;;;;;;5103648;27;21042;-59
2022/01/25 15:35:52;;;;;;;8.02;7.32;;;2.40;99.90;;;;;;5092299;27;20680;-60
2022/01/25 15:38:31;;;;;;;8.50;7.55;;;2.40;99.90;;;;;;5108620;27;20537;-60